createdAt,value
2019-02-19T00:22:38.875Z,0.00
2019-02-19T03:29:32.532Z,0.00
2019-02-19T03:30:32.541Z,0.00
2019-02-19T03:31:32.370Z,0.00
2019-02-19T03:32:32.281Z,0.00
2019-02-19T03:33:32.204Z,0.00
2019-02-19T03:34:32.111Z,0.00
2019-02-19T03:35:32.030Z,0.00
2019-02-19T03:36:31.933Z,0.00
2019-02-19T03:37:31.845Z,0.00
2019-02-19T03:38:31.777Z,0.00
2019-02-19T03:39:31.684Z,0.00
2019-02-19T03:40:31.594Z,0.00
2019-02-19T03:41:31.506Z,0.00
2019-02-19T03:42:31.420Z,0.00
2019-02-19T03:43:31.337Z,0.00
2019-02-19T03:44:31.244Z,0.00
2019-02-19T03:45:31.169Z,0.00
2019-02-19T03:46:31.084Z,0.00
2019-02-19T03:47:30.993Z,0.00
2019-02-19T03:48:30.909Z,0.00
2019-02-19T03:49:30.822Z,0.00
2019-02-19T03:50:30.735Z,0.00
2019-02-19T03:51:30.647Z,0.00
2019-02-19T03:52:30.569Z,0.00
2019-02-19T03:53:30.482Z,0.00
2019-02-19T03:54:30.399Z,0.00
2019-02-19T03:55:30.308Z,0.00
2019-02-19T03:56:30.223Z,0.00
2019-02-19T03:57:30.135Z,0.00
2019-02-19T03:58:30.047Z,0.00
2019-02-19T03:59:29.972Z,0.00
2019-02-19T04:00:29.885Z,0.00
2019-02-19T04:01:29.797Z,0.00
2019-02-19T04:02:29.712Z,0.00
2019-02-19T04:03:29.624Z,0.00
2019-02-19T04:04:29.534Z,0.00
2019-02-19T04:05:29.463Z,0.00
2019-02-19T04:06:29.360Z,0.00
2019-02-19T04:07:29.283Z,0.00
2019-02-19T04:08:29.208Z,0.00
2019-02-19T04:09:29.113Z,0.00
2019-02-19T04:10:29.024Z,0.00
2019-02-19T04:11:28.936Z,0.00
2019-02-19T04:12:28.847Z,0.00
2019-02-19T04:13:28.765Z,0.00
2019-02-19T04:14:28.684Z,0.00
2019-02-19T04:15:28.597Z,0.00
2019-02-19T04:16:28.509Z,0.00
2019-02-19T04:17:28.423Z,0.00
2019-02-19T04:18:28.337Z,0.00
2019-02-19T04:19:28.248Z,0.00
2019-02-19T04:20:28.163Z,0.00
2019-02-19T04:21:28.087Z,0.00
2019-02-19T04:22:28.001Z,0.00
2019-02-19T04:23:27.912Z,0.00
2019-02-19T04:24:27.823Z,0.00
2019-02-19T04:25:27.739Z,0.00
2019-02-19T04:26:27.649Z,0.00
2019-02-19T04:27:27.576Z,0.00
2019-02-19T04:28:27.487Z,0.00
2019-02-19T04:29:27.400Z,0.00
2019-02-19T04:30:27.314Z,0.00
2019-02-19T04:31:27.226Z,0.00
2019-02-19T04:32:27.137Z,0.00
2019-02-19T04:33:27.050Z,0.00
2019-02-19T04:34:26.961Z,0.00
2019-02-19T04:35:26.887Z,0.00
2019-02-19T04:36:26.803Z,0.00
2019-02-19T04:37:26.713Z,0.00
2019-02-19T04:38:26.628Z,0.00
2019-02-19T04:39:26.539Z,0.00
2019-02-19T04:40:26.455Z,0.00
2019-02-19T04:41:26.363Z,0.00
2019-02-19T04:42:26.276Z,0.00
2019-02-19T04:43:26.200Z,0.00
2019-02-19T04:44:26.127Z,0.00
2019-02-19T04:45:26.028Z,0.00
2019-02-19T04:46:31.484Z,0.00
2019-02-19T04:47:25.862Z,0.00
2019-02-19T04:48:25.764Z,0.00
2019-02-19T04:49:25.676Z,0.00
2019-02-19T04:50:25.600Z,0.00
2019-02-19T04:51:25.532Z,0.00
2019-02-19T04:52:25.426Z,0.00
2019-02-19T04:53:25.338Z,0.00
2019-02-19T04:54:25.345Z,0.00
2019-02-19T04:55:25.165Z,0.00
2019-02-19T04:56:25.086Z,0.00
2019-02-19T04:57:25.004Z,0.00
2019-02-19T04:58:24.917Z,0.00
2019-02-19T04:59:24.829Z,0.00
2019-02-19T05:00:24.745Z,0.00
2019-02-19T05:01:24.653Z,0.00
2019-02-19T05:02:24.564Z,0.00
2019-02-19T05:03:24.498Z,0.00
2019-02-19T05:04:24.402Z,0.00
2019-02-19T05:05:24.319Z,0.00
2019-02-19T05:06:24.232Z,0.00
2019-02-19T05:07:24.142Z,0.00
2019-02-19T05:08:24.062Z,0.00
2019-02-19T05:09:23.982Z,0.00
2019-02-19T05:10:23.880Z,0.00
2019-02-19T05:11:23.793Z,0.00
2019-02-19T05:12:23.728Z,0.00
2019-02-19T05:13:23.628Z,0.00
2019-02-19T05:14:23.542Z,0.00
2019-02-19T05:15:23.459Z,0.00
2019-02-19T05:16:23.369Z,0.00
2019-02-19T05:17:23.281Z,0.00
2019-02-19T05:18:23.193Z,0.00
2019-02-19T05:19:23.120Z,0.00
2019-02-19T05:20:23.036Z,0.00
2019-02-19T05:21:22.957Z,0.00
2019-02-19T05:22:22.856Z,0.00
2019-02-19T05:23:22.769Z,0.00
2019-02-19T05:24:22.680Z,0.00
2019-02-19T05:25:22.603Z,0.00
2019-02-19T05:26:22.516Z,0.00
2019-02-19T05:27:22.430Z,0.00
2019-02-19T05:28:22.357Z,0.00
2019-02-19T05:29:22.259Z,0.00
2019-02-19T05:30:22.172Z,0.00
2019-02-19T05:31:22.087Z,0.00
2019-02-19T05:32:21.993Z,0.00
2019-02-19T05:33:21.908Z,0.00
2019-02-19T05:34:21.832Z,0.00
2019-02-19T05:35:21.748Z,0.00
2019-02-19T05:36:21.657Z,0.00
2019-02-19T05:37:21.586Z,0.00
2019-02-19T05:38:21.484Z,0.00
2019-02-19T05:39:21.405Z,0.00
2019-02-19T05:40:21.308Z,0.00
2019-02-19T05:41:21.222Z,0.00
2019-02-19T05:42:21.146Z,4.00
2019-02-19T05:43:21.058Z,4.00
2019-02-19T05:44:20.969Z,0.00
2019-02-19T05:45:20.882Z,4.00
2019-02-19T05:46:20.806Z,4.00
2019-02-19T05:47:20.707Z,0.00
2019-02-19T05:48:20.636Z,4.00
2019-02-19T05:49:20.546Z,4.00
2019-02-19T05:50:20.459Z,8.00
2019-02-19T05:51:20.372Z,4.00
2019-02-19T05:52:20.307Z,8.00
2019-02-19T05:53:20.196Z,8.00
2019-02-19T05:54:20.110Z,8.00
2019-02-19T05:55:20.024Z,12.00
2019-02-19T05:56:19.946Z,16.00
2019-02-19T05:57:19.899Z,20.00
2019-02-19T05:58:19.770Z,20.00
2019-02-19T05:59:19.691Z,24.00
2019-02-19T06:00:19.597Z,28.00
2019-02-19T06:01:19.511Z,36.00
2019-02-19T06:02:19.422Z,40.00
2019-02-19T06:03:19.347Z,48.00
2019-02-19T06:04:19.259Z,56.00
2019-02-19T06:05:19.170Z,64.00
2019-02-19T06:06:19.083Z,72.00
2019-02-19T06:07:18.996Z,84.00
2019-02-19T06:08:18.912Z,92.00
2019-02-19T06:09:18.823Z,104.00
2019-02-19T06:10:18.734Z,116.00
2019-02-19T06:11:18.659Z,128.00
2019-02-19T06:12:18.574Z,132.00
2019-02-19T06:13:18.486Z,144.00
2019-02-19T06:14:18.398Z,156.00
2019-02-19T06:15:18.318Z,172.00
2019-02-19T06:16:18.222Z,188.00
2019-02-19T06:17:18.135Z,204.00
2019-02-19T06:18:18.063Z,220.00
2019-02-19T06:19:17.975Z,236.00
2019-02-19T06:20:17.888Z,256.00
2019-02-19T06:21:17.799Z,276.00
2019-02-19T06:22:17.715Z,304.00
2019-02-19T06:23:17.626Z,332.00
2019-02-19T06:24:17.550Z,360.00
2019-02-19T06:25:17.464Z,392.00
2019-02-19T06:26:17.376Z,420.00
2019-02-19T06:27:17.289Z,456.00
2019-02-19T06:28:17.198Z,492.00
2019-02-19T06:29:17.114Z,528.00
2019-02-19T06:30:17.023Z,560.00
2019-02-19T06:31:16.961Z,592.00
2019-02-19T06:32:16.863Z,620.00
2019-02-19T06:33:16.777Z,640.00
2019-02-19T06:34:16.693Z,668.00
2019-02-19T06:35:16.619Z,696.00
2019-02-19T06:36:16.512Z,716.00
2019-02-19T06:37:16.425Z,740.00
2019-02-19T06:38:16.349Z,760.00
2019-02-19T06:39:16.263Z,784.00
2019-02-19T06:40:16.176Z,804.00
2019-02-19T06:41:16.089Z,824.00
2019-02-19T06:42:16.002Z,848.00
2019-02-19T06:43:15.916Z,884.00
2019-02-19T06:44:15.842Z,932.00
2019-02-19T06:45:15.763Z,976.00
2019-02-19T06:46:15.663Z,1016.00
2019-02-19T06:47:15.575Z,1048.00
2019-02-19T06:48:15.503Z,1084.00
2019-02-19T06:49:15.406Z,1120.00
2019-02-19T06:50:15.328Z,1168.00
2019-02-19T06:51:15.241Z,1216.00
2019-02-19T06:52:15.164Z,1272.00
2019-02-19T06:53:15.065Z,1324.00
2019-02-19T06:54:14.978Z,1380.00
2019-02-19T06:55:14.896Z,1432.00
2019-02-19T06:56:14.802Z,1480.00
2019-02-19T06:57:14.726Z,1524.00
2019-02-19T06:58:14.639Z,1572.00
2019-02-19T06:59:14.552Z,1628.00
2019-02-19T07:00:14.466Z,1684.00
2019-02-19T07:01:14.383Z,1748.00
2019-02-19T07:02:14.304Z,1796.00
2019-02-19T07:03:14.218Z,1828.00
2019-02-19T07:04:14.127Z,1832.00
2019-02-19T07:05:14.041Z,1840.00
2019-02-19T07:06:13.952Z,1848.00
2019-02-19T07:07:13.866Z,1860.00
2019-02-19T07:08:13.793Z,1892.00
2019-02-19T07:09:13.705Z,1928.00
2019-02-19T07:10:13.618Z,1996.00
2019-02-19T07:11:13.530Z,2056.00
2019-02-19T07:12:13.444Z,2188.00
2019-02-19T07:13:13.357Z,2352.00
2019-02-19T07:14:13.280Z,2512.00
2019-02-19T07:15:13.194Z,2608.00
2019-02-19T07:16:13.103Z,2688.00
2019-02-19T07:17:15.744Z,2764.00
2019-02-19T07:18:12.929Z,2784.00
2019-02-19T07:19:12.855Z,2808.00
2019-02-19T07:20:12.869Z,2840.00
2019-02-19T07:21:12.694Z,2856.00
2019-02-19T07:22:12.597Z,2880.00
2019-02-19T07:23:12.506Z,2904.00
2019-02-19T07:24:12.431Z,2932.00
2019-02-19T07:25:12.342Z,2964.00
2019-02-19T07:26:12.254Z,3024.00
2019-02-19T07:27:12.167Z,3076.00
2019-02-19T07:28:12.080Z,3080.00
2019-02-19T07:29:12.008Z,3056.00
2019-02-19T07:30:11.917Z,3048.00
2019-02-19T07:31:11.843Z,3068.00
2019-02-19T07:32:11.746Z,3100.00
2019-02-19T07:33:11.658Z,3160.00
2019-02-19T07:34:11.582Z,3284.00
2019-02-19T07:35:11.495Z,3380.00
2019-02-19T07:36:11.412Z,3360.00
2019-02-19T07:37:11.318Z,3344.00
2019-02-19T07:38:11.243Z,3296.00
2019-02-19T07:39:11.155Z,3272.00
2019-02-19T07:40:11.074Z,3228.00
2019-02-19T07:41:10.983Z,3180.00
2019-02-19T07:42:10.912Z,3156.00
2019-02-19T07:43:10.823Z,3156.00
2019-02-19T07:44:10.735Z,3180.00
2019-02-19T07:45:10.648Z,3232.00
2019-02-19T07:46:10.571Z,3276.00
2019-02-19T07:47:10.484Z,3308.00
2019-02-19T07:48:10.394Z,3320.00
2019-02-19T07:49:10.307Z,3364.00
2019-02-19T07:50:10.231Z,3416.00
2019-02-19T07:51:10.144Z,3484.00
2019-02-19T07:52:10.067Z,3580.00
2019-02-19T07:53:09.973Z,3672.00
2019-02-19T07:54:09.886Z,3744.00
2019-02-19T07:55:09.809Z,3788.00
2019-02-19T07:56:09.721Z,3824.00
2019-02-19T07:57:09.632Z,3868.00
2019-02-19T07:58:09.557Z,3932.00
2019-02-19T07:59:09.471Z,4000.00
2019-02-19T08:00:09.384Z,4084.00
2019-02-19T08:01:09.296Z,4164.00
2019-02-19T08:02:09.223Z,4256.00
2019-02-19T08:03:09.133Z,4324.00
2019-02-19T08:04:09.051Z,4368.00
2019-02-19T08:05:08.962Z,4388.00
2019-02-19T08:06:08.887Z,4420.00
2019-02-19T08:07:08.798Z,4460.00
2019-02-19T08:08:08.709Z,4504.00
2019-02-19T08:09:08.634Z,4556.00
2019-02-19T08:10:08.548Z,4656.00
2019-02-19T08:11:08.458Z,4796.00
2019-02-19T08:12:08.386Z,4940.00
2019-02-19T08:13:08.300Z,5092.00
2019-02-19T08:14:08.214Z,5212.00
2019-02-19T08:15:08.126Z,5308.00
2019-02-19T08:16:08.050Z,5368.00
2019-02-19T08:17:07.962Z,5412.00
2019-02-19T08:18:07.875Z,5448.00
2019-02-19T08:19:07.800Z,5524.00
2019-02-19T08:20:15.437Z,5584.00
2019-02-19T08:21:07.623Z,5652.00
2019-02-19T08:22:07.549Z,5692.00
2019-02-19T08:23:07.461Z,5752.00
2019-02-19T08:24:07.379Z,5756.00
2019-02-19T08:25:07.300Z,5816.00
2019-02-19T08:26:07.217Z,5828.00
2019-02-19T08:27:07.126Z,5916.00
2019-02-19T08:28:07.049Z,6048.00
2019-02-19T08:29:13.426Z,6140.00
2019-02-19T08:30:06.875Z,6256.00
2019-02-19T08:31:06.802Z,6352.00
2019-02-19T08:32:06.711Z,6356.00
2019-02-19T08:33:06.625Z,6380.00
2019-02-19T08:34:06.550Z,6368.00
2019-02-19T08:35:06.462Z,6492.00
2019-02-19T08:36:06.379Z,6560.00
2019-02-19T08:37:06.302Z,6328.00
2019-02-19T08:38:06.214Z,6112.00
2019-02-19T08:39:06.134Z,6088.00
2019-02-19T08:40:06.052Z,5960.00
2019-02-19T08:41:05.963Z,5572.00
2019-02-19T08:42:05.900Z,5660.00
2019-02-19T08:43:05.805Z,5768.00
2019-02-19T08:44:05.715Z,5600.00
2019-02-19T08:45:05.641Z,5156.00
2019-02-19T08:46:05.554Z,4540.00
2019-02-19T08:47:05.467Z,3972.00
2019-02-19T08:48:05.400Z,3940.00
2019-02-19T08:49:05.304Z,3952.00
2019-02-19T08:50:05.232Z,3964.00
2019-02-19T08:51:05.138Z,4332.00
2019-02-19T08:52:05.065Z,4708.00
2019-02-19T08:53:04.982Z,5468.00
2019-02-19T08:54:04.892Z,6288.00
2019-02-19T08:55:04.817Z,6832.00
2019-02-19T08:56:04.731Z,7160.00
2019-02-19T08:57:04.640Z,7252.00
2019-02-19T08:58:04.565Z,7288.00
2019-02-19T08:59:04.478Z,7296.00
2019-02-19T09:00:04.405Z,7292.00
2019-02-19T09:01:04.330Z,7360.00
2019-02-19T09:02:04.230Z,7488.00
2019-02-19T09:03:04.157Z,7620.00
2019-02-19T09:04:04.068Z,7752.00
2019-02-19T09:05:03.993Z,7324.00
2019-02-19T09:06:03.905Z,6944.00
2019-02-19T09:07:03.819Z,7008.00
2019-02-19T09:08:03.755Z,6756.00
2019-02-19T09:09:03.654Z,6248.00
2019-02-19T09:10:03.582Z,5948.00
2019-02-19T09:11:03.493Z,5188.00
2019-02-19T09:12:03.432Z,4892.00
2019-02-19T09:13:03.342Z,5108.00
2019-02-19T09:14:03.244Z,5448.00
2019-02-19T09:15:03.168Z,5552.00
2019-02-19T09:16:03.090Z,5820.00
2019-02-19T09:17:03.004Z,5736.00
2019-02-19T09:18:02.919Z,6036.00
2019-02-19T09:19:02.841Z,6172.00
2019-02-19T09:20:02.754Z,5900.00
2019-02-19T09:21:02.688Z,5764.00
2019-02-19T09:22:02.591Z,5668.00
2019-02-19T09:23:02.513Z,5268.00
2019-02-19T09:24:09.229Z,5444.00
2019-02-19T09:25:02.357Z,5660.00
2019-02-19T09:26:02.283Z,5544.00
2019-02-19T09:27:02.186Z,5520.00
2019-02-19T09:28:02.093Z,5544.00
2019-02-19T09:29:02.018Z,5660.00
2019-02-19T09:30:01.935Z,5652.00
2019-02-19T09:31:01.856Z,5316.00
2019-02-19T09:32:01.771Z,5268.00
2019-02-19T09:33:01.683Z,5324.00
2019-02-19T09:34:01.623Z,5880.00
2019-02-19T09:35:01.521Z,6264.00
2019-02-19T09:36:01.445Z,6384.00
2019-02-19T09:37:01.358Z,6024.00
2019-02-19T09:38:01.284Z,5512.00
2019-02-19T09:39:01.197Z,4696.00
2019-02-19T09:40:01.113Z,4948.00
2019-02-19T09:41:01.033Z,4448.00
2019-02-19T09:42:00.947Z,4580.00
2019-02-19T09:43:00.872Z,4624.00
2019-02-19T09:44:00.784Z,4768.00
2019-02-19T09:45:00.698Z,5452.00
2019-02-19T09:46:00.626Z,5656.00
2019-02-19T09:47:00.536Z,5368.00
2019-02-19T09:48:01.497Z,6384.00
2019-02-19T09:49:00.376Z,5796.00
2019-02-19T09:50:00.369Z,6200.00
2019-02-19T09:51:00.210Z,8480.00
2019-02-19T09:52:00.122Z,8176.00
2019-02-19T09:53:00.446Z,7276.00
2019-02-19T09:53:59.960Z,5828.00
2019-02-19T09:54:59.895Z,5444.00
2019-02-19T09:55:59.799Z,5092.00
2019-02-19T09:56:59.722Z,4816.00
2019-02-19T09:57:59.636Z,5340.00
2019-02-19T09:58:59.555Z,6004.00
2019-02-19T09:59:59.723Z,5536.00
2019-02-19T10:00:59.384Z,6064.00
2019-02-19T10:01:59.310Z,5632.00
2019-02-19T10:02:59.222Z,4844.00
2019-02-19T10:03:59.148Z,5968.00
2019-02-19T10:04:59.074Z,7056.00
2019-02-19T10:05:58.975Z,6720.00
2019-02-19T10:06:58.900Z,6456.00
2019-02-19T10:07:58.812Z,6968.00
2019-02-19T10:08:58.736Z,7300.00
2019-02-19T10:09:58.649Z,5564.00
2019-02-19T10:10:58.576Z,5380.00
2019-02-19T10:11:58.492Z,4900.00
2019-02-19T10:12:58.399Z,4668.00
2019-02-19T10:13:58.322Z,4208.00
2019-02-19T10:14:58.236Z,4644.00
2019-02-19T10:15:58.365Z,5008.00
2019-02-19T10:16:58.890Z,5064.00
2019-02-19T10:17:58.750Z,5360.00
2019-02-19T12:00:23.199Z,4700.00
2019-02-19T12:01:20.512Z,4176.00
2019-02-19T12:02:20.412Z,6284.00
2019-02-19T12:05:26.689Z,7564.00
2019-02-19T12:06:26.598Z,7384.00
2019-02-19T12:07:26.524Z,7604.00
2019-02-19T12:08:26.446Z,7848.00
2019-02-19T12:09:26.359Z,8392.00
2019-02-19T12:10:26.274Z,8808.00
2019-02-19T12:11:26.184Z,9280.00
2019-02-19T12:12:26.111Z,9564.00
2019-02-19T12:13:26.026Z,9544.00
2019-02-19T12:14:25.950Z,9492.00
2019-02-19T12:15:34.544Z,9096.00
2019-02-19T12:16:25.788Z,9544.00
2019-02-19T12:17:25.698Z,9764.00
2019-02-19T12:18:25.611Z,9788.00
2019-02-19T12:19:25.535Z,9556.00
2019-02-19T12:20:25.448Z,9300.00
2019-02-19T12:21:25.374Z,9092.00
2019-02-19T12:22:25.300Z,8864.00
2019-02-19T12:23:25.210Z,8660.00
2019-02-19T12:24:25.130Z,8460.00
2019-02-19T12:25:25.050Z,8352.00
2019-02-19T12:26:24.962Z,8380.00
2019-02-19T12:27:24.876Z,8460.00
2019-02-19T12:28:24.799Z,8440.00
2019-02-19T12:29:24.712Z,8388.00
2019-02-19T12:30:24.649Z,8416.00
2019-02-19T12:31:24.550Z,8364.00
2019-02-19T12:32:24.476Z,8368.00
2019-02-19T12:33:24.401Z,8236.00
2019-02-19T12:34:24.314Z,8112.00
2019-02-19T12:35:24.227Z,8120.00
2019-02-19T12:36:24.154Z,8104.00
2019-02-19T12:37:24.063Z,7992.00
2019-02-19T12:38:23.991Z,7840.00
2019-02-19T12:39:23.904Z,7732.00
2019-02-19T12:40:23.829Z,7660.00
2019-02-19T12:41:23.743Z,7552.00
2019-02-19T12:42:23.652Z,7424.00
2019-02-19T12:43:23.576Z,7308.00
2019-02-19T12:44:23.491Z,7344.00
2019-02-19T12:45:23.414Z,7512.00
2019-02-19T12:46:23.329Z,7716.00
2019-02-19T12:47:23.253Z,7836.00
2019-02-19T12:48:23.190Z,7924.00
2019-02-19T12:49:23.091Z,7952.00
2019-02-19T12:50:23.001Z,7864.00
2019-02-19T12:51:26.469Z,7688.00
2019-02-19T12:52:22.840Z,7512.00
2019-02-19T12:53:22.768Z,7308.00
2019-02-19T12:54:22.676Z,7148.00
2019-02-19T12:55:22.604Z,7056.00
2019-02-19T12:56:22.532Z,7032.00
2019-02-19T12:57:22.442Z,6476.00
2019-02-19T12:58:22.354Z,6236.00
2019-02-19T12:59:22.266Z,6892.00
2019-02-19T13:00:22.189Z,6992.00
2019-02-19T13:01:22.103Z,7040.00
2019-02-19T13:02:22.029Z,6844.00
2019-02-19T13:03:21.939Z,6736.00
2019-02-19T13:04:21.866Z,6324.00
2019-02-19T13:05:21.783Z,5740.00
2019-02-19T13:06:21.710Z,6120.00
2019-02-19T13:07:21.617Z,5964.00
2019-02-19T13:08:21.540Z,5704.00
2019-02-19T13:09:21.454Z,6148.00
2019-02-19T13:10:21.379Z,6140.00
2019-02-19T13:11:21.293Z,5784.00
2019-02-19T13:12:21.205Z,5972.00
2019-02-19T13:13:21.130Z,5780.00
2019-02-19T13:14:21.043Z,6096.00
2019-02-19T13:15:20.968Z,6260.00
2019-02-19T13:16:20.879Z,5816.00
2019-02-19T13:17:20.804Z,5720.00
2019-02-19T13:18:20.716Z,6000.00
2019-02-19T13:19:20.642Z,6044.00
2019-02-19T13:20:20.557Z,6192.00
2019-02-19T13:21:20.484Z,6120.00
2019-02-19T13:22:20.406Z,7316.00
2019-02-19T13:23:20.307Z,6236.00
2019-02-19T13:24:20.233Z,5240.00
2019-02-19T13:25:20.143Z,5224.00
2019-02-19T13:26:20.069Z,5268.00
2019-02-19T13:27:19.983Z,4992.00
2019-02-19T13:28:19.905Z,4872.00
2019-02-19T13:29:19.817Z,4984.00
2019-02-19T13:30:19.755Z,4636.00
2019-02-19T13:31:19.656Z,5188.00
2019-02-19T13:32:19.570Z,4260.00
2019-02-19T13:33:19.508Z,4100.00
2019-02-19T13:34:19.407Z,3980.00
2019-02-19T13:35:19.333Z,4852.00
2019-02-19T13:36:19.245Z,6152.00
2019-02-19T13:37:19.167Z,5120.00
2019-02-19T13:38:19.082Z,4572.00
2019-02-19T13:39:19.010Z,3728.00
2019-02-19T13:40:18.918Z,4012.00
2019-02-19T13:41:18.843Z,4848.00
2019-02-19T13:42:18.756Z,4820.00
2019-02-19T13:43:18.670Z,4456.00
2019-02-19T13:44:18.596Z,5168.00
2019-02-19T13:45:18.513Z,5304.00
2019-02-19T13:46:18.434Z,4700.00
2019-02-19T13:47:18.359Z,4904.00
2019-02-19T13:48:18.269Z,4916.00
2019-02-19T13:49:18.191Z,4468.00
2019-02-19T13:50:18.095Z,4440.00
2019-02-19T13:51:18.019Z,4188.00
2019-02-19T13:52:22.768Z,4424.00
2019-02-19T13:53:17.859Z,4148.00
2019-02-19T13:54:17.774Z,3900.00
2019-02-19T13:55:17.700Z,3844.00
2019-02-19T13:56:17.614Z,4316.00
2019-02-19T13:57:17.536Z,3436.00
2019-02-19T13:58:17.449Z,2992.00
2019-02-19T13:59:17.360Z,3868.00
2019-02-19T14:00:17.289Z,3416.00
2019-02-19T14:01:17.195Z,3776.00
2019-02-19T14:02:17.120Z,4828.00
2019-02-19T14:03:17.034Z,4648.00
2019-02-19T14:04:16.961Z,5260.00
2019-02-19T14:05:16.873Z,5204.00
2019-02-19T14:06:16.786Z,4860.00
2019-02-19T14:07:16.712Z,4492.00
2019-02-19T14:08:16.631Z,4236.00
2019-02-19T14:09:16.546Z,3916.00
2019-02-19T14:10:16.462Z,3732.00
2019-02-19T14:11:16.385Z,3884.00
2019-02-19T14:12:16.297Z,3552.00
2019-02-19T14:13:16.212Z,3468.00
2019-02-19T14:14:16.136Z,2924.00
2019-02-19T14:15:16.060Z,2820.00
2019-02-19T14:16:15.974Z,2672.00
2019-02-19T14:17:15.889Z,2876.00
2019-02-19T14:18:15.812Z,3900.00
2019-02-19T14:19:21.110Z,4544.00
2019-02-19T14:20:15.636Z,4712.00
2019-02-19T14:21:15.560Z,4924.00
2019-02-19T14:22:15.472Z,4392.00
2019-02-19T14:23:15.398Z,4740.00
2019-02-19T14:24:15.315Z,4128.00
2019-02-19T14:25:15.238Z,3204.00
2019-02-19T14:26:15.150Z,3132.00
2019-02-19T14:27:15.089Z,2856.00
2019-02-19T14:28:14.989Z,3056.00
2019-02-19T14:29:14.901Z,3368.00
2019-02-19T14:30:14.825Z,3088.00
2019-02-19T14:31:14.755Z,2612.00
2019-02-19T14:32:14.661Z,3544.00
2019-02-19T14:33:14.573Z,3708.00
2019-02-19T14:34:14.499Z,3884.00
2019-02-19T14:35:14.412Z,3904.00
2019-02-19T14:36:14.327Z,4212.00
2019-02-19T14:37:14.258Z,4516.00
2019-02-19T14:38:14.164Z,4784.00
2019-02-19T14:39:14.090Z,5248.00
2019-02-19T14:40:14.003Z,4456.00
2019-02-19T14:41:13.924Z,3456.00
2019-02-19T14:42:13.839Z,2728.00
2019-02-19T14:43:13.768Z,2740.00
2019-02-19T14:44:13.676Z,2576.00
2019-02-19T14:45:13.588Z,2680.00
2019-02-19T14:46:13.513Z,2468.00
2019-02-19T14:47:13.425Z,2268.00
2019-02-19T14:48:13.353Z,2588.00
2019-02-19T14:49:13.265Z,2492.00
2019-02-19T14:50:13.192Z,2340.00
2019-02-19T14:51:13.105Z,2312.00
2019-02-19T14:52:13.025Z,2724.00
2019-02-19T14:53:12.938Z,3292.00
2019-02-19T14:54:12.883Z,2976.00
2019-02-19T14:55:12.777Z,2548.00
2019-02-19T14:56:12.691Z,2016.00
2019-02-19T14:57:12.617Z,1480.00
2019-02-19T14:58:12.530Z,1204.00
2019-02-19T14:59:12.456Z,964.00
2019-02-19T15:00:12.367Z,1036.00
2019-02-19T15:01:12.292Z,1740.00
2019-02-19T15:02:12.204Z,2000.00
2019-02-19T15:03:12.120Z,1948.00
2019-02-19T15:04:12.040Z,1960.00
2019-02-19T15:05:11.958Z,1968.00
2019-02-19T15:06:11.865Z,2312.00
2019-02-19T15:07:13.426Z,2296.00
2019-02-19T15:08:11.710Z,1896.00
2019-02-19T15:09:11.643Z,1508.00
2019-02-19T15:10:11.543Z,1380.00
2019-02-19T15:11:11.471Z,1224.00
2019-02-19T15:12:11.389Z,1176.00
2019-02-19T15:13:11.291Z,1636.00
2019-02-19T15:14:11.217Z,1800.00
2019-02-19T15:15:11.129Z,1772.00
2019-02-19T15:16:11.056Z,1596.00
2019-02-19T15:17:10.969Z,1576.00
2019-02-19T15:18:10.885Z,1500.00
2019-02-19T15:19:10.806Z,1440.00
2019-02-19T15:20:10.717Z,1280.00
2019-02-19T15:21:10.642Z,1268.00
2019-02-19T15:22:10.555Z,1272.00
2019-02-19T15:23:10.479Z,1280.00
2019-02-19T15:24:10.395Z,1236.00
2019-02-19T15:25:10.308Z,1020.00
2019-02-19T15:26:10.231Z,940.00
2019-02-19T15:27:10.144Z,1044.00
2019-02-19T15:28:10.068Z,1000.00
2019-02-19T15:29:09.980Z,892.00
2019-02-19T15:30:09.894Z,888.00
2019-02-19T15:31:09.819Z,804.00
2019-02-19T15:32:09.730Z,720.00
2019-02-19T15:33:09.667Z,720.00
2019-02-19T15:34:09.568Z,716.00
2019-02-19T15:35:09.493Z,720.00
2019-02-19T15:36:09.407Z,684.00
2019-02-19T15:37:10.658Z,664.00
2019-02-19T15:38:09.250Z,616.00
2019-02-19T15:39:09.159Z,528.00
2019-02-19T15:40:09.080Z,548.00
2019-02-19T15:41:08.995Z,608.00
2019-02-19T15:42:08.919Z,572.00
2019-02-19T15:43:08.831Z,568.00
2019-02-19T15:44:08.750Z,508.00
2019-02-19T15:45:08.671Z,488.00
2019-02-19T15:46:08.583Z,516.00
2019-02-19T15:47:08.498Z,512.00
2019-02-19T15:48:08.446Z,464.00
2019-02-19T15:49:08.334Z,388.00
2019-02-19T15:50:08.260Z,348.00
2019-02-19T15:51:08.172Z,308.00
2019-02-19T15:52:08.085Z,320.00
2019-02-19T15:53:08.026Z,352.00
2019-02-19T15:54:07.919Z,348.00
2019-02-19T15:55:07.845Z,296.00
2019-02-19T15:56:07.759Z,264.00
2019-02-19T15:57:07.672Z,224.00
2019-02-19T15:58:07.597Z,188.00
2019-02-19T15:59:07.511Z,168.00
2019-02-19T16:00:07.432Z,136.00
2019-02-19T16:01:07.350Z,116.00
2019-02-19T16:02:07.258Z,104.00
2019-02-19T16:03:07.183Z,92.00
2019-02-19T16:04:07.103Z,76.00
2019-02-19T16:05:07.029Z,76.00
2019-02-19T16:06:06.934Z,84.00
2019-02-19T16:07:06.854Z,108.00
2019-02-19T16:08:06.775Z,180.00
2019-02-19T16:09:06.685Z,216.00
2019-02-19T16:10:06.600Z,180.00
2019-02-19T16:11:06.525Z,164.00
2019-02-19T16:12:06.447Z,152.00
2019-02-19T16:13:06.359Z,148.00
2019-02-19T16:14:06.272Z,148.00
2019-02-19T16:15:06.188Z,196.00
2019-02-19T16:16:06.135Z,236.00
2019-02-19T16:17:06.025Z,220.00
2019-02-19T16:18:06.054Z,204.00
2019-02-19T16:19:05.866Z,196.00
2019-02-19T16:20:05.775Z,172.00
2019-02-19T16:21:05.706Z,148.00
2019-02-19T16:22:05.625Z,116.00
2019-02-19T16:23:05.529Z,96.00
2019-02-19T16:24:05.456Z,84.00
2019-02-19T16:25:05.361Z,76.00
2019-02-19T16:26:05.285Z,84.00
2019-02-19T16:27:05.200Z,64.00
2019-02-19T16:28:05.114Z,68.00
2019-02-19T16:29:05.037Z,56.00
2019-02-19T16:30:04.953Z,40.00
2019-02-19T16:31:04.868Z,40.00
2019-02-19T16:32:04.785Z,32.00
2019-02-19T16:33:04.699Z,32.00
2019-02-19T16:34:04.631Z,36.00
2019-02-19T16:35:04.537Z,28.00
2019-02-19T16:36:04.450Z,20.00
2019-02-19T16:37:04.374Z,20.00
2019-02-19T16:38:04.286Z,20.00
2019-02-19T16:39:04.211Z,16.00
2019-02-19T16:40:04.127Z,16.00
2019-02-19T16:41:04.051Z,12.00
2019-02-19T16:42:03.964Z,12.00
2019-02-19T16:43:03.877Z,8.00
2019-02-19T16:44:03.788Z,8.00
2019-02-19T16:45:03.718Z,8.00
2019-02-19T16:46:03.625Z,4.00
2019-02-19T16:47:03.545Z,8.00
2019-02-19T16:48:03.470Z,4.00
2019-02-19T16:49:03.378Z,0.00
2019-02-19T16:50:07.681Z,4.00
2019-02-19T16:51:03.217Z,4.00
2019-02-19T16:52:03.129Z,0.00
2019-02-19T16:53:03.053Z,0.00
2019-02-19T16:54:02.993Z,0.00
2019-02-19T16:55:02.879Z,0.00
2019-02-19T16:56:02.801Z,0.00
2019-02-19T16:57:02.713Z,0.00
2019-02-19T16:58:02.641Z,0.00
2019-02-19T16:59:07.491Z,0.00
2019-02-19T17:00:02.487Z,0.00
2019-02-19T17:01:02.391Z,0.00
2019-02-19T17:02:02.320Z,0.00
2019-02-19T17:03:02.216Z,0.00
2019-02-19T17:04:03.425Z,0.00
2019-02-19T17:05:02.079Z,0.00
2019-02-19T17:06:01.969Z,0.00
2019-02-19T17:07:01.889Z,0.00
2019-02-19T17:08:01.805Z,0.00
2019-02-19T17:09:01.728Z,0.00
2019-02-19T17:10:01.640Z,0.00
2019-02-19T17:11:01.557Z,0.00
2019-02-19T17:12:01.481Z,0.00
2019-02-19T17:13:01.394Z,0.00
2019-02-19T17:14:01.313Z,0.00
2019-02-19T17:15:01.231Z,0.00
2019-02-19T17:16:01.143Z,0.00
2019-02-19T17:17:01.066Z,0.00
2019-02-19T17:18:00.979Z,0.00
2019-02-19T17:19:00.891Z,0.00
2019-02-19T17:20:01.082Z,0.00
2019-02-19T17:21:00.731Z,0.00
2019-02-19T17:22:00.643Z,0.00
2019-02-19T17:23:00.568Z,0.00
2019-02-19T17:24:00.479Z,0.00
2019-02-19T17:25:00.399Z,0.00
2019-02-19T17:26:00.317Z,0.00
2019-02-19T17:27:00.230Z,0.00
2019-02-19T17:28:00.145Z,0.00
2019-02-19T17:29:00.078Z,0.00
2019-02-19T17:29:59.983Z,0.00
2019-02-19T17:30:59.907Z,0.00
2019-02-19T17:31:59.817Z,0.00
2019-02-19T17:32:59.732Z,0.00
2019-02-19T17:33:59.657Z,0.00
2019-02-19T17:34:59.573Z,0.00
2019-02-19T17:35:59.482Z,0.00
2019-02-19T17:36:59.408Z,0.00
2019-02-19T17:37:59.326Z,0.00
2019-02-19T17:38:59.245Z,0.00
2019-02-19T17:39:59.159Z,0.00